Time;durP1;ratioP1;P1;durP2;ratioP2;P2;SDS_P1;SDS_P2;PMS_P1;PMS_P2;Temp;Humidity;BMP_temperature;BMP_pressure;BME280_temperature;BME280_humidity;BME280_pressure;Samples;Min_cycle;Max_cycle;Signal;HPM_P1;HPM_P2
2021/05/18 07:37:46;;;;;;;6.90;2.33;;;14.70;99.90;;;;;;3319811;26;20222;-74
2021/05/18 07:40:13;;;;;;;6.10;2.23;;;14.90;99.90;;;;;;4976368;28;20219;-72
2021/05/18 07:42:39;;;;;;;4.47;2.00;;;14.70;99.90;;;;;;4968670;28;20290;-79
2021/05/18 07:45:07;;;;;;;2.73;2.00;;;14.70;99.90;;;;;;4960591;28;20237;-69
2021/05/18 07:47:35;;;;;;;4.47;2.47;;;14.90;99.90;;;;;;4973093;28;20222;-68
2021/05/18 07:50:05;;;;;;;4.10;2.07;;;15.20;99.90;;;;;;4956085;28;20223;-69
2021/05/18 08:01:05;;;;;;;4.13;2.00;;;15.90;99.90;;;;;;4959966;29;20343;-73
2021/05/18 08:06:16;;;;;;;6.93;1.90;;;18.00;99.90;;;;;;4979073;28;20634;-75
2021/05/18 08:08:44;;;;;;;4.15;1.60;;;19.00;99.90;;;;;;4972961;28;20214;-76
2021/05/18 08:11:11;;;;;;;3.45;1.70;;;19.80;99.90;;;;;;4959767;28;20208;-76
2021/05/18 08:13:37;;;;;;;6.28;2.08;;;20.00;99.90;;;;;;4964631;28;20227;-73
2021/05/18 08:19:18;;;;;;;7.88;2.25;;;19.60;99.90;;;;;;4961922;28;20701;-73
2021/05/18 08:21:59;;;;;;;5.82;2.17;;;18.40;99.90;;;;;;4959052;29;20602;-74
2021/05/18 10:35:50;;;;;;;2.07;1.20;;;18.00;99.80;;;;;;4975785;28;20207;-73
2021/05/18 10:38:21;;;;;;;1.20;0.90;;;17.90;98.60;;;;;;4975348;28;20215;-72
2021/05/18 10:40:49;;;;;;;1.63;1.10;;;18.10;98.00;;;;;;4975421;28;20211;-72
2021/05/18 10:43:26;;;;;;;1.20;0.87;;;18.60;99.90;;;;;;4975571;28;20238;-73
2021/05/18 10:46:16;;;;;;;0.90;0.60;;;18.80;97.50;;;;;;4975379;28;20230;-73
2021/05/18 10:49:29;;;;;;;1.23;0.83;;;18.80;97.60;;;;;;4975754;28;20298;-73
2021/05/18 10:51:57;;;;;;;0.90;0.60;;;18.90;96.40;;;;;;4975518;28;20214;-73
2021/05/18 10:54:35;;;;;;;1.57;1.00;;;18.80;96.30;;;;;;4975489;28;20239;-73
2021/05/18 10:57:13;;;;;;;0.73;0.70;;;18.70;96.40;;;;;;4975539;28;20207;-72
2021/05/18 10:59:41;;;;;;;2.10;0.97;;;18.80;96.50;;;;;;4975632;28;20211;-73
2021/05/18 11:02:10;;;;;;;1.00;0.90;;;19.00;96.30;;;;;;4975667;28;20234;-73
2021/05/18 11:04:39;;;;;;;2.50;0.95;;;19.10;97.20;;;;;;4974949;28;20230;-72
2021/05/18 11:07:06;;;;;;;2.40;1.17;;;19.30;96.50;;;;;;4975132;28;20234;-72
2021/05/18 11:09:33;;;;;;;0.90;0.70;;;19.60;95.90;;;;;;4975150;28;20219;-72
2021/05/18 11:12:01;;;;;;;0.90;0.73;;;19.60;96.10;;;;;;4974666;28;20211;-72
2021/05/18 11:14:39;;;;;;;0.82;0.57;;;19.60;94.40;;;;;;4974946;28;20290;-72
2021/05/18 11:17:07;;;;;;;2.58;0.63;;;19.60;95.30;;;;;;4974971;28;20203;-72
2021/05/18 11:19:33;;;;;;;0.82;0.70;;;19.70;95.80;;;;;;4974824;28;20544;-73
2021/05/18 11:22:02;;;;;;;1.27;0.63;;;19.50;96.00;;;;;;4974659;28;20270;-73
2021/05/18 11:24:28;;;;;;;1.83;0.90;;;19.50;96.80;;;;;;4974523;28;20234;-73
2021/05/18 11:26:54;;;;;;;3.15;0.80;;;19.40;95.30;;;;;;4974607;28;20262;-73
2021/05/18 11:29:39;;;;;;;1.52;1.05;;;19.20;96.10;;;;;;4974609;28;20610;-73
2021/05/18 11:32:08;;;;;;;1.35;0.90;;;19.30;95.90;;;;;;4974164;28;20207;-73
2021/05/18 11:34:49;;;;;;;0.82;0.60;;;19.30;95.40;;;;;;4975063;28;20211;-72
2021/05/18 11:37:15;;;;;;;2.40;0.85;;;19.10;94.90;;;;;;4973966;28;20222;-73
2021/05/18 11:39:41;;;;;;;1.17;0.80;;;19.20;95.00;;;;;;4974302;28;20674;-73
2021/05/18 11:42:08;;;;;;;1.65;0.70;;;19.40;96.10;;;;;;4974384;28;20543;-73
2021/05/18 11:44:35;;;;;;;0.88;0.63;;;19.30;95.40;;;;;;4974252;28;20598;-73
2021/05/18 11:47:03;;;;;;;1.40;0.60;;;19.60;95.60;;;;;;4974378;28;20662;-73
2021/05/18 11:49:29;;;;;;;1.65;0.88;;;19.70;96.30;;;;;;4974222;28;20302;-73
2021/05/18 11:51:57;;;;;;;2.42;0.80;;;19.80;95.20;;;;;;4974294;28;20211;-73
2021/05/18 11:54:27;;;;;;;2.60;1.08;;;19.90;95.90;;;;;;4974182;28;20235;-73
2021/05/18 11:56:54;;;;;;;2.95;0.80;;;19.90;96.10;;;;;;4974301;28;20219;-73
2021/05/18 11:59:23;;;;;;;1.30;0.80;;;19.60;95.20;;;;;;4974438;28;20331;-73
2021/05/18 12:01:50;;;;;;;0.60;0.60;;;19.40;94.90;;;;;;4974044;28;20203;-74
2021/05/18 12:04:19;;;;;;;1.17;0.55;;;19.30;94.10;;;;;;4973707;28;20243;-73
2021/05/18 12:06:55;;;;;;;1.33;0.70;;;19.40;95.30;;;;;;4974129;28;20214;-74
2021/05/18 12:09:21;;;;;;;1.05;0.60;;;19.30;94.30;;;;;;4974096;28;20203;-73
2021/05/18 12:11:53;;;;;;;1.42;0.85;;;19.40;94.50;;;;;;4974386;28;20207;-73
2021/05/18 12:14:19;;;;;;;2.20;0.85;;;19.30;95.80;;;;;;4974034;28;20276;-73
2021/05/18 12:16:46;;;;;;;1.08;0.60;;;19.30;95.00;;;;;;4973783;28;20211;-74
2021/05/18 12:19:14;;;;;;;6.17;1.60;;;19.50;94.90;;;;;;4973893;28;20536;-72
2021/05/18 12:21:43;;;;;;;1.05;0.82;;;19.30;93.80;;;;;;4974049;28;20211;-73
2021/05/18 12:24:12;;;;;;;1.45;0.90;;;19.30;95.80;;;;;;4973976;28;20230;-72
2021/05/18 12:26:47;;;;;;;2.63;0.70;;;19.50;95.40;;;;;;4974126;28;20211;-72
2021/05/18 12:29:26;;;;;;;0.77;0.53;;;19.30;93.20;;;;;;4973841;28;20273;-73
2021/05/18 12:31:53;;;;;;;0.77;0.63;;;19.30;93.70;;;;;;4974167;28;20207;-73
2021/05/18 12:34:28;;;;;;;2.78;0.90;;;19.20;92.60;;;;;;4973986;28;20242;-72
2021/05/18 12:36:56;;;;;;;0.83;0.60;;;18.90;93.90;;;;;;4962641;28;20207;-82
2021/05/18 12:39:23;;;;;;;1.80;0.63;;;18.90;93.10;;;;;;4953626;28;20299;-79
2021/05/18 12:41:58;;;;;;;1.80;0.60;;;19.10;92.50;;;;;;4953157;28;20212;-80
2021/05/18 12:44:27;;;;;;;0.60;0.50;;;19.30;93.70;;;;;;4954203;28;20238;-72
2021/05/18 12:47:01;;;;;;;1.10;0.80;;;19.30;94.60;;;;;;4956848;28;20212;-70
2021/05/18 12:49:30;;;;;;;0.90;0.60;;;19.30;93.80;;;;;;4957227;28;20571;-72
2021/05/18 12:52:10;;;;;;;4.20;0.60;;;19.20;95.70;;;;;;4956505;28;20208;-71
2021/05/18 12:54:45;;;;;;;0.80;0.60;;;19.10;94.60;;;;;;4957013;28;20207;-74
2021/05/18 12:57:12;;;;;;;0.50;0.47;;;19.20;96.20;;;;;;4956924;28;20243;-70
2021/05/18 13:00:09;;;;;;;0.63;0.50;;;19.00;93.90;;;;;;4956112;28;20304;-72
2021/05/18 13:02:38;;;;;;;2.87;0.60;;;18.90;93.60;;;;;;4956143;28;20228;-82
2021/05/18 13:05:08;;;;;;;1.00;0.70;;;18.70;92.90;;;;;;4956552;28;20243;-71
2021/05/18 13:07:35;;;;;;;1.33;0.43;;;18.50;94.10;;;;;;4955769;28;20239;-81
2021/05/18 13:10:15;;;;;;;2.20;0.60;;;18.20;93.00;;;;;;4956982;28;20207;-71
2021/05/18 13:12:42;;;;;;;1.33;0.97;;;18.10;93.70;;;;;;4957106;28;20232;-78
2021/05/18 13:15:10;;;;;;;1.00;0.50;;;18.20;94.20;;;;;;4956523;28;20216;-78
2021/05/18 13:17:37;;;;;;;0.40;0.30;;;18.10;93.60;;;;;;4958901;28;20212;-76
2021/05/18 13:20:06;;;;;;;0.77;0.50;;;18.20;94.50;;;;;;4957451;28;20234;-74
2021/05/18 13:22:34;;;;;;;0.50;0.40;;;18.10;93.50;;;;;;4957133;28;20235;-74
2021/05/18 13:27:52;;;;;;;2.07;0.47;;;18.10;92.80;;;;;;4960810;28;20263;-73
2021/05/18 13:30:20;;;;;;;0.50;0.50;;;18.30;93.30;;;;;;4956636;29;20219;-73
2021/05/18 13:32:47;;;;;;;0.70;0.50;;;18.60;92.60;;;;;;4955835;29;20228;-82
2021/05/18 13:35:14;;;;;;;0.60;0.40;;;18.70;92.00;;;;;;4954745;28;20212;-75
2021/05/18 13:37:40;;;;;;;0.57;0.33;;;18.80;93.30;;;;;;4954254;28;20216;-83
2021/05/18 13:40:09;;;;;;;0.73;0.40;;;19.10;93.30;;;;;;4955828;28;20223;-74
2021/05/18 13:42:35;;;;;;;1.80;0.60;;;19.20;92.50;;;;;;4955890;29;20232;-74
2021/05/18 13:45:01;;;;;;;0.77;0.60;;;19.10;92.60;;;;;;4955988;29;20243;-72
2021/05/18 13:47:27;;;;;;;0.50;0.40;;;19.30;94.10;;;;;;4955482;28;20212;-74
2021/05/18 13:49:54;;;;;;;1.73;0.50;;;19.20;93.40;;;;;;4956836;28;20224;-71
2021/05/18 13:52:20;;;;;;;1.00;0.50;;;19.10;92.70;;;;;;4956864;28;20208;-73
2021/05/18 13:54:46;;;;;;;0.60;0.43;;;19.10;93.10;;;;;;4956257;28;20216;-74
2021/05/18 13:57:13;;;;;;;0.60;0.40;;;19.00;92.50;;;;;;4956917;28;20208;-78
2021/05/18 13:59:39;;;;;;;0.50;0.40;;;18.90;92.20;;;;;;4956910;29;20212;-76
2021/05/18 14:02:06;;;;;;;0.43;0.37;;;18.90;92.60;;;;;;4956914;29;20212;-72
2021/05/18 14:04:32;;;;;;;0.50;0.30;;;19.00;90.70;;;;;;4957057;28;20236;-74
2021/05/18 14:07:13;;;;;;;1.17;0.50;;;19.00;93.10;;;;;;4956528;28;20730;-73
2021/05/18 14:09:39;;;;;;;1.43;0.67;;;18.80;91.80;;;;;;4956701;29;20275;-74
2021/05/18 14:12:06;;;;;;;1.00;0.60;;;18.60;92.20;;;;;;4956671;28;20615;-69
2021/05/18 14:14:33;;;;;;;2.07;0.80;;;18.20;93.10;;;;;;4965436;28;20234;-71
2021/05/18 14:16:59;;;;;;;0.70;0.40;;;18.30;93.90;;;;;;4974457;28;20211;-70
2021/05/18 14:19:26;;;;;;;1.67;0.60;;;18.40;93.80;;;;;;4974895;28;20207;-71
2021/05/18 14:21:52;;;;;;;2.30;0.60;;;18.40;92.70;;;;;;4975428;28;20216;-72
2021/05/18 14:24:21;;;;;;;0.50;0.50;;;18.30;93.10;;;;;;4975470;28;20231;-72
2021/05/18 14:26:47;;;;;;;1.50;0.60;;;18.20;92.80;;;;;;4975288;28;20207;-72
2021/05/18 14:29:14;;;;;;;1.73;0.67;;;18.00;92.10;;;;;;4975785;28;20306;-71
2021/05/18 14:31:41;;;;;;;0.97;0.53;;;17.90;93.20;;;;;;4975568;28;20211;-71
2021/05/18 14:34:08;;;;;;;0.60;0.50;;;17.70;92.90;;;;;;4975333;28;20228;-71
2021/05/18 14:36:34;;;;;;;1.87;0.70;;;17.70;93.00;;;;;;4975508;28;20211;-71
2021/05/18 14:39:04;;;;;;;1.67;0.50;;;17.80;93.30;;;;;;4975239;28;20720;-70
2021/05/18 14:44:21;;;;;;;2.13;1.10;;;17.90;93.00;;;;;;4958324;28;20258;-71
2021/05/18 14:46:53;;;;;;;0.40;0.40;;;17.80;92.40;;;;;;4974897;28;20207;-70
2021/05/18 14:55:01;;;;;;;1.57;0.50;;;17.50;94.00;;;;;;4975229;28;20306;-71
2021/05/18 14:57:27;;;;;;;0.73;0.57;;;17.60;93.30;;;;;;4974742;28;20207;-71
2021/05/18 14:59:54;;;;;;;1.33;0.40;;;17.70;93.50;;;;;;4975210;28;20211;-72
2021/05/18 15:02:21;;;;;;;2.97;0.60;;;17.80;94.00;;;;;;4975215;28;20203;-71
2021/05/18 15:04:47;;;;;;;1.53;0.70;;;17.70;93.40;;;;;;4974918;28;20242;-71
2021/05/18 15:07:13;;;;;;;1.60;0.57;;;17.60;93.40;;;;;;4974123;28;20219;-71
2021/05/18 15:09:40;;;;;;;0.80;0.50;;;17.60;93.00;;;;;;4974856;28;20215;-71
2021/05/18 15:12:07;;;;;;;0.80;0.53;;;17.60;91.60;;;;;;4975219;28;20207;-71
2021/05/18 15:14:34;;;;;;;1.63;0.70;;;17.70;92.40;;;;;;4975009;28;20211;-71
2021/05/18 15:17:01;;;;;;;2.37;0.63;;;17.70;93.00;;;;;;4975045;28;20207;-72
2021/05/18 15:19:29;;;;;;;0.87;0.60;;;17.90;93.10;;;;;;4975087;28;20298;-71
2021/05/18 15:21:58;;;;;;;0.77;0.43;;;17.90;92.20;;;;;;4974605;28;20302;-71
2021/05/18 15:24:25;;;;;;;2.57;0.60;;;18.00;92.20;;;;;;4974530;28;20258;-71
2021/05/18 15:26:51;;;;;;;0.73;0.60;;;17.90;92.90;;;;;;4974824;28;20214;-71
2021/05/18 15:29:17;;;;;;;0.90;0.50;;;17.80;92.30;;;;;;4974561;28;20207;-71
2021/05/18 15:31:44;;;;;;;1.90;0.60;;;17.90;94.10;;;;;;4974367;28;20708;-71
2021/05/18 15:34:10;;;;;;;0.40;0.30;;;17.80;93.80;;;;;;4974297;28;20760;-70
2021/05/18 15:36:38;;;;;;;0.87;0.33;;;17.80;92.20;;;;;;4974267;28;20705;-71
2021/05/18 15:39:05;;;;;;;0.50;0.40;;;17.90;92.00;;;;;;4974204;28;20254;-71
2021/05/18 15:41:32;;;;;;;0.60;0.40;;;17.90;92.20;;;;;;4974561;28;20211;-71
2021/05/18 15:43:59;;;;;;;0.37;0.37;;;17.70;92.30;;;;;;4974543;28;20238;-71
2021/05/18 15:46:26;;;;;;;0.60;0.40;;;17.70;92.90;;;;;;4974337;28;20237;-71
2021/05/18 15:48:52;;;;;;;0.50;0.40;;;17.90;92.90;;;;;;4974338;28;20207;-71
2021/05/18 15:51:18;;;;;;;0.77;0.40;;;18.00;91.80;;;;;;4974291;28;20214;-70
2021/05/18 15:53:45;;;;;;;0.60;0.40;;;18.00;93.20;;;;;;4974429;28;20230;-71
2021/05/18 15:56:12;;;;;;;1.00;0.63;;;18.10;92.70;;;;;;4974183;28;20260;-71
2021/05/18 15:58:38;;;;;;;0.93;0.60;;;18.30;91.40;;;;;;4974231;28;20294;-71
2021/05/18 16:01:04;;;;;;;1.10;0.50;;;18.30;92.40;;;;;;4974295;28;20253;-71
2021/05/18 16:03:31;;;;;;;0.87;0.60;;;18.10;91.90;;;;;;4974151;28;20230;-71
2021/05/18 16:06:00;;;;;;;2.23;0.50;;;18.00;91.90;;;;;;4973946;28;20594;-70
2021/05/18 16:11:23;;;;;;;1.20;0.50;;;17.90;91.50;;;;;;4895770;29;20266;-71
2021/05/18 16:13:49;;;;;;;0.80;0.50;;;17.80;91.80;;;;;;4955272;28;20227;-71
2021/05/18 16:16:16;;;;;;;1.17;0.73;;;17.70;92.40;;;;;;4974026;28;20237;-71
2021/05/18 16:18:43;;;;;;;1.27;0.77;;;17.70;93.80;;;;;;4976005;28;20214;-71
2021/05/18 16:21:11;;;;;;;1.43;0.50;;;17.70;92.70;;;;;;4978185;28;20230;-71
2021/05/18 16:23:39;;;;;;;1.00;0.50;;;17.80;92.20;;;;;;4977926;28;20235;-73
2021/05/18 16:26:05;;;;;;;1.43;0.60;;;17.70;92.90;;;;;;4977848;28;20239;-71
2021/05/18 16:28:33;;;;;;;3.53;0.50;;;17.80;91.80;;;;;;4977972;28;20218;-71
2021/05/18 16:31:00;;;;;;;0.70;0.40;;;17.80;92.20;;;;;;4977733;28;20215;-71
2021/05/18 16:33:27;;;;;;;1.63;0.57;;;18.00;91.70;;;;;;4977979;28;20283;-71
2021/05/18 16:35:54;;;;;;;0.77;0.40;;;18.10;92.50;;;;;;4977944;28;20250;-70
2021/05/18 16:38:20;;;;;;;0.97;0.60;;;18.30;92.80;;;;;;4977286;28;20261;-71
2021/05/18 16:40:51;;;;;;;1.03;0.60;;;18.20;92.10;;;;;;4977623;28;20211;-71
2021/05/18 16:43:17;;;;;;;0.70;0.50;;;18.20;91.10;;;;;;4977522;28;20223;-71
2021/05/18 16:45:44;;;;;;;1.67;0.80;;;18.20;92.30;;;;;;4977883;28;20238;-71
2021/05/18 16:48:11;;;;;;;0.83;0.60;;;18.20;93.10;;;;;;4977867;28;20211;-71
2021/05/18 16:50:37;;;;;;;0.60;0.40;;;18.00;92.60;;;;;;4977673;28;20218;-71
2021/05/18 16:53:03;;;;;;;1.23;0.50;;;18.00;91.80;;;;;;4977202;28;20224;-71
2021/05/18 16:55:30;;;;;;;0.50;0.50;;;17.90;92.90;;;;;;4977535;28;20207;-71
2021/05/18 16:57:56;;;;;;;0.80;0.50;;;17.80;92.60;;;;;;4977306;28;20215;-71
2021/05/18 17:00:23;;;;;;;0.50;0.40;;;17.90;92.60;;;;;;4977604;28;20215;-71
2021/05/18 17:02:50;;;;;;;1.73;0.70;;;18.00;92.40;;;;;;4977327;28;20231;-71
2021/05/18 17:05:17;;;;;;;1.53;0.70;;;17.80;93.60;;;;;;4977121;28;20768;-71
2021/05/18 17:07:43;;;;;;;0.80;0.67;;;17.70;93.30;;;;;;4977094;28;20674;-72
2021/05/18 17:10:10;;;;;;;0.90;0.60;;;17.70;92.90;;;;;;4977109;28;20215;-71
2021/05/18 17:12:37;;;;;;;0.90;0.60;;;17.80;93.00;;;;;;4977051;28;20223;-71
2021/05/18 17:15:05;;;;;;;1.60;0.67;;;17.80;92.30;;;;;;4977141;28;20220;-71
2021/05/18 17:17:31;;;;;;;0.90;0.60;;;17.90;93.30;;;;;;4976875;28;20207;-72
2021/05/18 17:19:58;;;;;;;1.37;0.50;;;17.90;93.70;;;;;;4976626;28;20267;-71
2021/05/18 17:22:26;;;;;;;0.87;0.50;;;18.00;94.20;;;;;;4976797;28;20242;-71
2021/05/18 17:24:52;;;;;;;2.87;0.50;;;18.00;93.40;;;;;;4976896;28;20238;-71
2021/05/18 17:27:19;;;;;;;1.60;0.50;;;17.90;93.00;;;;;;4976614;28;20211;-72
2021/05/18 17:29:45;;;;;;;0.70;0.40;;;18.00;93.80;;;;;;4975874;28;20207;-70
2021/05/18 17:32:11;;;;;;;1.13;0.50;;;18.00;92.90;;;;;;4976579;28;20686;-71
2021/05/18 17:34:38;;;;;;;0.70;0.50;;;18.10;92.40;;;;;;4976648;28;20207;-71
2021/05/18 17:37:08;;;;;;;1.30;0.90;;;18.10;93.50;;;;;;4976362;28;20670;-71
2021/05/18 17:39:35;;;;;;;2.33;0.60;;;18.00;92.60;;;;;;4976761;28;20242;-70
2021/05/18 17:42:01;;;;;;;1.53;0.77;;;18.10;92.10;;;;;;4976523;28;20736;-71
2021/05/18 17:44:28;;;;;;;0.90;0.50;;;18.10;92.30;;;;;;4976422;28;20278;-70
2021/05/18 17:46:55;;;;;;;0.77;0.47;;;18.00;93.80;;;;;;4976582;28;20212;-71
2021/05/18 17:49:22;;;;;;;1.13;0.60;;;17.90;93.20;;;;;;4976472;28;20261;-70
2021/05/18 17:51:48;;;;;;;1.13;0.47;;;17.80;93.80;;;;;;4976126;28;20203;-70
2021/05/18 17:54:16;;;;;;;1.90;0.87;;;17.60;94.20;;;;;;4976016;28;20231;-70
2021/05/18 17:56:42;;;;;;;1.87;0.80;;;17.60;93.60;;;;;;4976487;28;20233;-71
2021/05/18 17:59:08;;;;;;;1.27;0.60;;;17.60;93.70;;;;;;4976210;28;20226;-71
2021/05/18 18:01:35;;;;;;;2.23;0.50;;;17.50;93.90;;;;;;4976237;28;20303;-71
2021/05/18 18:04:01;;;;;;;0.97;0.60;;;17.50;95.50;;;;;;4975879;28;20622;-71
2021/05/18 18:06:28;;;;;;;1.83;0.60;;;17.10;96.30;;;;;;4975911;28;20235;-71
2021/05/18 18:08:56;;;;;;;0.93;0.60;;;16.70;98.20;;;;;;4970154;28;20203;-71
2021/05/18 18:11:23;;;;;;;3.23;0.93;;;16.50;99.10;;;;;;4960413;28;20203;-72
2021/05/18 18:13:49;;;;;;;2.17;0.80;;;16.40;99.90;;;;;;4956085;28;20224;-71
2021/05/18 18:16:16;;;;;;;2.13;0.90;;;16.40;99.90;;;;;;4970129;28;20659;-71
2021/05/18 18:18:42;;;;;;;1.57;1.03;;;16.10;99.90;;;;;;4971936;28;20204;-70
2021/05/18 18:21:09;;;;;;;0.90;0.67;;;16.00;99.90;;;;;;4955422;29;20227;-70
2021/05/18 18:23:37;;;;;;;1.50;1.10;;;15.90;99.90;;;;;;4955539;29;20658;-70
2021/05/18 18:26:04;;;;;;;1.80;1.00;;;15.80;99.90;;;;;;4956241;29;20235;-70
2021/05/18 18:28:32;;;;;;;2.63;0.93;;;15.70;99.90;;;;;;4955952;28;20208;-71
2021/05/18 18:30:58;;;;;;;1.33;0.70;;;15.70;99.90;;;;;;4956417;29;20259;-70
2021/05/18 18:33:24;;;;;;;2.13;0.80;;;15.60;99.90;;;;;;4955875;29;20252;-71
2021/05/18 18:35:51;;;;;;;1.87;1.00;;;15.60;99.90;;;;;;4955707;29;20215;-69
2021/05/18 18:38:18;;;;;;;1.80;1.00;;;15.50;99.90;;;;;;4955212;28;20679;-68
2021/05/18 18:40:45;;;;;;;2.97;1.70;;;15.40;99.90;;;;;;4955450;28;20212;-69
2021/05/18 18:43:12;;;;;;;2.03;1.30;;;15.10;99.90;;;;;;4955743;29;20236;-69
2021/05/18 18:45:40;;;;;;;2.33;1.37;;;15.00;99.90;;;;;;4955678;29;20236;-68
2021/05/18 18:48:10;;;;;;;2.67;1.53;;;14.60;99.90;;;;;;4955892;29;20211;-69
2021/05/18 18:50:39;;;;;;;2.77;1.83;;;14.30;99.90;;;;;;4955878;28;20243;-69
2021/05/18 18:53:17;;;;;;;4.47;2.10;;;13.80;99.90;;;;;;4955823;29;20228;-69
2021/05/18 18:55:43;;;;;;;4.33;1.80;;;13.60;99.90;;;;;;4955633;29;20208;-70
2021/05/18 18:58:12;;;;;;;2.80;1.70;;;13.30;99.90;;;;;;4955819;29;20261;-70
2021/05/18 19:00:39;;;;;;;3.73;1.50;;;13.20;99.90;;;;;;4955597;28;20219;-71
2021/05/18 19:03:08;;;;;;;2.37;1.57;;;13.00;99.90;;;;;;4955134;29;20234;-70
2021/05/18 19:05:48;;;;;;;2.03;1.50;;;12.80;99.90;;;;;;4974402;28;20241;-71
2021/05/18 19:08:29;;;;;;;2.43;1.77;;;12.70;99.90;;;;;;4955435;29;20602;-70
2021/05/18 19:13:42;;;;;;;4.67;1.33;;;12.40;99.90;;;;;;4938592;29;20299;-71
2021/05/18 19:16:09;;;;;;;3.63;1.77;;;12.20;99.90;;;;;;4955482;29;20663;-71
2021/05/18 19:18:35;;;;;;;2.53;1.70;;;12.20;99.90;;;;;;4955353;29;20219;-71
2021/05/18 19:21:01;;;;;;;2.57;1.60;;;12.10;99.90;;;;;;4955407;29;20216;-71
2021/05/18 19:23:27;;;;;;;1.93;1.30;;;12.20;99.90;;;;;;4955171;29;20228;-71
2021/05/18 19:25:56;;;;;;;1.87;1.30;;;12.00;99.90;;;;;;4955032;29;20235;-70
2021/05/18 19:28:23;;;;;;;2.37;1.30;;;11.90;99.90;;;;;;4955513;29;20302;-70
2021/05/18 19:30:49;;;;;;;1.70;1.30;;;11.90;99.90;;;;;;4955350;29;20204;-71
2021/05/18 19:33:18;;;;;;;1.67;1.20;;;11.90;99.90;;;;;;4963408;28;20227;-71
2021/05/18 19:35:55;;;;;;;2.07;1.10;;;11.90;99.90;;;;;;4965187;28;20216;-71
2021/05/18 19:41:27;;;;;;;2.33;0.80;;;11.80;99.90;;;;;;4969010;28;20286;-72
2021/05/18 19:43:58;;;;;;;0.97;0.60;;;11.70;99.90;;;;;;4966302;28;20234;-71
2021/05/18 19:49:12;;;;;;;1.30;0.50;;;11.70;99.90;;;;;;4963189;28;20638;-72
2021/05/18 19:51:41;;;;;;;1.00;0.67;;;11.70;99.90;;;;;;4966429;28;20210;-72
2021/05/18 19:54:12;;;;;;;1.40;0.63;;;11.70;99.90;;;;;;4959744;28;20234;-73
2021/05/18 19:56:43;;;;;;;0.60;0.40;;;11.20;99.90;;;;;;4970119;28;20614;-73
2021/05/18 19:59:34;;;;;;;0.83;0.60;;;10.60;99.90;;;;;;4967482;28;20219;-73
2021/05/18 20:21:23;;;;;;;0.60;0.50;;;10.60;99.90;;;;;;4966557;28;20204;-71
2021/05/18 20:23:50;;;;;;;0.73;0.70;;;10.70;99.90;;;;;;4969086;28;20834;-72
2021/05/18 20:26:16;;;;;;;0.70;0.50;;;10.80;99.90;;;;;;4963524;28;20235;-72
2021/05/18 20:28:42;;;;;;;0.70;0.50;;;10.90;99.90;;;;;;4963475;28;20207;-72
2021/05/18 20:31:08;;;;;;;0.57;0.50;;;11.00;99.90;;;;;;4962367;28;20224;-72
2021/05/18 20:33:42;;;;;;;1.00;0.60;;;11.00;99.90;;;;;;4963764;28;20230;-71
2021/05/18 20:38:59;;;;;;;1.87;0.80;;;11.10;99.90;;;;;;4969258;28;20214;-72
2021/05/18 20:41:29;;;;;;;1.10;0.73;;;11.20;99.90;;;;;;4963627;28;20216;-72
2021/05/18 20:43:56;;;;;;;1.00;0.70;;;11.20;99.90;;;;;;4966888;28;20224;-72
2021/05/18 20:46:22;;;;;;;0.80;0.80;;;11.20;99.90;;;;;;4969194;28;20239;-72
2021/05/18 20:48:49;;;;;;;3.53;0.97;;;11.20;99.90;;;;;;4955495;28;20215;-72
2021/05/18 20:51:15;;;;;;;2.33;1.03;;;11.20;99.90;;;;;;4954186;29;20212;-72
2021/05/18 20:53:42;;;;;;;1.90;0.63;;;11.30;99.90;;;;;;4954097;29;20703;-72
2021/05/18 20:56:09;;;;;;;1.57;0.80;;;11.30;99.90;;;;;;4952943;29;20738;-72
2021/05/18 20:58:36;;;;;;;1.33;0.90;;;11.40;99.90;;;;;;4953541;29;20675;-72
2021/05/18 21:01:03;;;;;;;1.37;0.80;;;11.40;99.90;;;;;;4953920;29;20212;-72
2021/05/18 21:03:30;;;;;;;1.90;0.63;;;11.40;99.90;;;;;;4953812;29;20231;-72
2021/05/18 21:05:59;;;;;;;1.00;0.90;;;11.30;99.90;;;;;;4955418;28;20254;-72
2021/05/18 21:08:36;;;;;;;1.50;0.60;;;11.30;99.90;;;;;;4957481;29;20220;-72
2021/05/18 21:11:22;;;;;;;0.50;0.50;;;11.30;99.90;;;;;;4956467;29;20218;-71
2021/05/18 21:13:55;;;;;;;0.90;0.60;;;11.40;99.90;;;;;;4971596;28;20227;-71
2021/05/18 21:16:20;;;;;;;1.03;0.80;;;11.50;99.90;;;;;;4976659;28;20243;-71
2021/05/18 21:18:47;;;;;;;1.47;0.80;;;11.50;99.90;;;;;;4962971;28;20238;-71
2021/05/18 21:21:13;;;;;;;0.70;0.70;;;11.40;99.90;;;;;;4975950;28;20234;-72
2021/05/18 21:23:40;;;;;;;1.90;0.50;;;11.30;99.90;;;;;;4977179;28;20234;-72
2021/05/18 21:26:06;;;;;;;0.90;0.70;;;11.30;99.90;;;;;;4977876;28;20298;-72
2021/05/18 21:28:32;;;;;;;1.40;0.83;;;11.40;99.90;;;;;;4976915;28;20254;-72
